createdAt,value
2022-12-22T00:02:02.306Z,9.06
2022-12-22T00:07:11.040Z,9.06
2022-12-22T00:12:20.159Z,9
2022-12-22T00:17:29.188Z,9.06
2022-12-22T00:27:39.093Z,9.06
2022-12-22T00:32:45.577Z,9
2022-12-22T00:37:54.518Z,9
2022-12-22T00:43:03.565Z,8.94
2022-12-22T00:48:12.611Z,8.88
2022-12-22T00:53:21.391Z,8.81
2022-12-22T00:58:30.443Z,8.75
2022-12-22T01:03:39.691Z,8.75
2022-12-22T01:08:48.528Z,8.75
2022-12-22T01:13:57.486Z,8.75
2022-12-22T01:34:01.274Z,8.94
2022-12-22T01:39:10.397Z,8.94
2022-12-22T01:44:19.464Z,8.88
2022-12-22T01:49:28.567Z,8.88
2022-12-22T01:54:37.515Z,8.94
2022-12-22T02:04:44.686Z,9.13
2022-12-22T02:09:53.677Z,9.19
2022-12-22T02:15:02.684Z,9.25
2022-12-22T02:20:11.627Z,9.25
2022-12-22T02:25:20.787Z,9.25
2022-12-22T02:30:29.884Z,9.19
2022-12-22T02:35:38.867Z,9.19
2022-12-22T02:40:48.016Z,9.25
2022-12-22T02:45:57.209Z,9.25
2022-12-22T02:51:06.322Z,9.25
2022-12-22T02:56:15.146Z,9.19
2022-12-22T03:01:24.327Z,9.19
2022-12-22T03:06:33.191Z,9.13
2022-12-22T03:11:42.055Z,9
2022-12-22T03:16:51.045Z,8.88
2022-12-22T03:22:00.053Z,8.81
2022-12-22T03:27:08.841Z,9
2022-12-22T03:32:17.839Z,9.13
2022-12-22T03:37:26.899Z,9.13
2022-12-22T03:42:35.951Z,9.13
2022-12-22T03:47:44.981Z,9.13
2022-12-22T03:52:53.668Z,9.13
2022-12-22T03:58:02.594Z,9.19
2022-12-22T04:03:11.716Z,9.19
2022-12-22T04:08:20.618Z,9.25
2022-12-22T04:13:29.679Z,9.25
2022-12-22T04:18:38.870Z,9.19
2022-12-22T04:23:47.749Z,9.31
2022-12-22T04:28:56.738Z,9.31
2022-12-22T04:34:05.790Z,9.31
2022-12-22T04:39:14.836Z,9.38
2022-12-22T04:44:23.894Z,9.31
2022-12-22T04:49:32.735Z,9.38
2022-12-22T04:54:41.775Z,9.31
2022-12-22T04:59:50.616Z,9.25
2022-12-22T05:04:59.677Z,9.25
2022-12-22T05:10:08.749Z,9.38
2022-12-22T05:15:17.703Z,9.38
2022-12-22T05:20:26.662Z,9.44
2022-12-22T05:25:35.931Z,9.44
2022-12-22T05:30:44.949Z,9.44
2022-12-22T05:35:53.973Z,9.5
2022-12-22T05:41:04.509Z,9.44
2022-12-22T05:51:21.126Z,9.5
2022-12-22T05:56:30.227Z,9.5
2022-12-22T06:06:40.195Z,9.5
2022-12-22T06:11:49.314Z,9.5
2022-12-22T06:16:58.095Z,9.69
2022-12-22T06:22:07.182Z,9.69
2022-12-22T06:27:16.248Z,9.69
2022-12-22T06:32:25.136Z,9.75
2022-12-22T06:37:34.268Z,9.75
2022-12-22T06:42:43.418Z,9.81
2022-12-22T06:53:01.293Z,9.75
2022-12-22T06:58:10.500Z,9.75
2022-12-22T07:03:19.606Z,9.69
2022-12-22T07:08:28.454Z,9.75
2022-12-22T07:13:37.432Z,9.81
2022-12-22T07:18:46.361Z,9.88
2022-12-22T07:23:55.225Z,9.81
2022-12-22T07:29:04.311Z,10.13
2022-12-22T07:34:13.351Z,10.06
2022-12-22T07:44:34.872Z,10
2022-12-22T07:49:43.820Z,10.06
2022-12-22T07:54:52.867Z,10.06
2022-12-22T08:00:01.712Z,10.13
2022-12-22T08:05:10.859Z,10.06
2022-12-22T08:10:19.661Z,10.19
2022-12-22T08:15:28.758Z,10
2022-12-22T08:20:37.664Z,10.06
2022-12-22T08:30:45.123Z,10.06
2022-12-22T08:40:52.662Z,10.19
2022-12-22T08:46:01.777Z,10.19
2022-12-22T08:51:10.793Z,10.38
2022-12-22T08:56:19.888Z,10.5
2022-12-22T09:01:29.118Z,10.5
2022-12-22T09:06:41.086Z,10.5
2022-12-22T09:11:46.985Z,10.5
2022-12-22T09:16:56.028Z,10.69
2022-12-22T09:22:04.962Z,10.63
2022-12-22T09:27:13.955Z,10.75
2022-12-22T09:32:22.998Z,10.75
2022-12-22T09:37:32.162Z,10.69
2022-12-22T09:42:41.289Z,10.63
2022-12-22T09:47:50.314Z,10.63
2022-12-22T09:52:59.477Z,10.63
2022-12-22T09:58:11.501Z,10.63
2022-12-22T10:03:20.722Z,10.44
2022-12-22T10:08:29.625Z,10.44
2022-12-22T10:18:47.605Z,10.63
2022-12-22T10:23:56.593Z,10.5
2022-12-22T10:29:05.452Z,10.63
2022-12-22T10:34:14.348Z,10.56
2022-12-22T10:39:23.258Z,10.44
2022-12-22T10:49:30.160Z,10.38
2022-12-22T10:54:39.243Z,10.44
2022-12-22T10:59:48.201Z,10.81
2022-12-22T11:04:57.215Z,10.94
2022-12-22T11:10:06.140Z,11
2022-12-22T11:15:23.912Z,10.94
2022-12-22T11:20:27.327Z,11
2022-12-22T11:25:36.067Z,11
2022-12-22T11:45:43.025Z,11.12
2022-12-22T11:55:58.711Z,11.12
2022-12-22T12:01:20.302Z,11.25
2022-12-22T12:11:22.201Z,11.06
2022-12-22T12:16:31.206Z,11.19
2022-12-22T12:26:46.448Z,11.06
2022-12-22T12:31:55.514Z,11.12
2022-12-22T12:37:04.388Z,11.06
2022-12-22T12:42:13.489Z,11.06
2022-12-22T12:47:22.492Z,11.06
2022-12-22T12:52:31.398Z,11
2022-12-22T12:57:40.324Z,11
2022-12-22T13:02:49.705Z,10.94
2022-12-22T13:07:58.508Z,10.88
2022-12-22T13:13:07.504Z,10.81
2022-12-22T13:18:16.503Z,10.75
2022-12-22T13:23:25.313Z,10.88
2022-12-22T13:28:34.386Z,10.88
2022-12-22T13:33:43.259Z,11
2022-12-22T13:38:52.186Z,10.75
2022-12-22T13:44:01.226Z,10.75
2022-12-22T13:49:10.261Z,10.75
2022-12-22T13:54:19.285Z,10.75
2022-12-22T14:09:25.228Z,10.88
2022-12-22T14:14:34.226Z,11.06
2022-12-22T14:19:43.438Z,11
2022-12-22T14:24:52.792Z,11.12
2022-12-22T14:30:02.022Z,11
2022-12-22T14:35:11.068Z,10.88
2022-12-22T14:40:20.000Z,10.88
2022-12-22T14:45:29.192Z,10.75
2022-12-22T14:50:38.133Z,10.69
2022-12-22T14:55:47.218Z,10.69
2022-12-22T15:00:56.269Z,10.63
2022-12-22T15:06:05.118Z,10.56
2022-12-22T15:11:14.293Z,10.5
2022-12-22T15:21:21.350Z,10.44
2022-12-22T15:26:34.440Z,10.5
2022-12-22T15:31:39.101Z,10.5
2022-12-22T15:36:47.949Z,10.5
2022-12-22T15:41:56.976Z,10.44
2022-12-22T15:47:05.914Z,10.38
2022-12-22T15:52:14.885Z,10.31
2022-12-22T15:57:23.897Z,10.25
2022-12-22T16:02:32.988Z,10.19
2022-12-22T16:07:41.968Z,10.06
2022-12-22T16:12:50.721Z,10
2022-12-22T16:17:59.776Z,9.88
2022-12-22T16:23:08.723Z,9.75
2022-12-22T16:28:17.629Z,9.56
2022-12-22T16:33:26.649Z,9.5
2022-12-22T16:38:35.594Z,9.5
2022-12-22T16:48:53.562Z,9.44
2022-12-22T16:54:02.790Z,9.44
2022-12-22T16:59:11.644Z,9.31
2022-12-22T17:04:20.719Z,9.19
2022-12-22T17:09:29.599Z,9.25
2022-12-22T17:14:38.728Z,9.31
2022-12-22T17:19:47.712Z,9.31
2022-12-22T17:24:56.637Z,9.31
2022-12-22T17:30:05.498Z,9.31
2022-12-22T17:40:12.978Z,9.25
2022-12-22T17:45:22.083Z,9.25
2022-12-22T17:50:30.977Z,9.19
2022-12-22T17:56:06.946Z,9.13
2022-12-22T18:00:49.194Z,9.19
2022-12-22T18:06:01.306Z,9.19
2022-12-22T18:11:10.397Z,9.19
2022-12-22T18:16:19.653Z,9.25
2022-12-22T18:21:28.615Z,9.25
2022-12-22T18:26:37.629Z,9.25
2022-12-22T18:31:46.845Z,9.19
2022-12-22T18:36:55.506Z,9.25
2022-12-22T18:42:04.554Z,9.25
2022-12-22T18:47:13.449Z,9.13
2022-12-22T18:52:22.394Z,9.13
2022-12-22T18:57:34.331Z,9.13
2022-12-22T19:02:43.581Z,9.19
2022-12-22T19:07:52.442Z,9.19
2022-12-22T19:13:01.420Z,9.19
2022-12-22T19:18:12.346Z,9.25
2022-12-22T19:23:21.435Z,9.31
2022-12-22T19:28:30.508Z,9.25
2022-12-22T19:33:39.430Z,9.19
2022-12-22T19:38:50.714Z,9.19
2022-12-22T19:43:57.618Z,9.25
2022-12-22T19:49:06.481Z,9.25
2022-12-22T19:54:15.401Z,9.38
2022-12-22T20:04:33.427Z,9.38
2022-12-22T20:09:42.913Z,9.38
2022-12-22T20:14:51.828Z,9.44
2022-12-22T20:29:57.084Z,9.5
2022-12-22T20:35:08.947Z,9.5
2022-12-22T20:40:18.081Z,9.5
2022-12-22T20:45:27.006Z,9.5
2022-12-22T20:50:36.136Z,9.56
2022-12-22T20:55:45.000Z,9.56
2022-12-22T21:00:54.057Z,9.5
2022-12-22T21:06:02.970Z,9.56
2022-12-22T21:11:11.966Z,9.56
2022-12-22T21:16:20.851Z,9.56
2022-12-22T21:21:29.927Z,9.5
2022-12-22T21:26:38.897Z,9.44
2022-12-22T21:41:55.183Z,9.44
2022-12-22T21:47:03.986Z,9.44
2022-12-22T21:52:12.953Z,9.38
2022-12-22T21:57:21.911Z,9.31
2022-12-22T22:12:28.420Z,9.13
2022-12-22T22:17:35.814Z,9.06
2022-12-22T22:22:44.751Z,9.06
2022-12-22T22:27:53.753Z,9.06
2022-12-22T22:33:02.750Z,9.06
2022-12-22T22:38:11.790Z,9.06
2022-12-22T22:43:20.794Z,9.06
2022-12-22T22:48:29.714Z,9.13
2022-12-22T22:53:38.836Z,9.19
2022-12-22T22:58:47.970Z,9.19
2022-12-22T23:03:57.206Z,9.25
2022-12-22T23:09:05.945Z,9.25
2022-12-22T23:14:14.971Z,9.19
2022-12-22T23:19:23.920Z,9.19
2022-12-22T23:29:31.346Z,9.19
2022-12-22T23:34:40.353Z,9.19
2022-12-22T23:39:49.347Z,9.13
2022-12-22T23:44:58.490Z,9.13
2022-12-22T23:50:07.547Z,9.13
2022-12-22T23:55:16.597Z,9.19
